Time;durP1;ratioP1;P1;durP2;ratioP2;P2;SDS_P1;SDS_P2;PMS_P1;PMS_P2;Temp;Humidity;BMP_temperature;BMP_pressure;BME280_temperature;BME280_humidity;BME280_pressure;Samples;Min_cycle;Max_cycle;Signal;HPM_P1;HPM_P2
2022/10/21 00:01:50;;;;;;;11.20;4.43;;;;;;;10.13;100.00;100995.94;5033430;28;20490;-79
2022/10/21 00:04:16;;;;;;;8.77;3.67;;;;;;;10.13;100.00;100978.88;5036693;28;20942;-79
2022/10/21 00:06:43;;;;;;;10.33;3.90;;;;;;;10.11;100.00;100979.97;5036348;28;20467;-79
2022/10/21 00:09:09;;;;;;;11.47;3.43;;;;;;;10.14;100.00;100962.38;5036787;28;20443;-79
2022/10/21 00:11:36;;;;;;;9.90;3.90;;;;;;;10.14;100.00;100988.59;5034274;28;20478;-80
2022/10/21 00:14:04;;;;;;;8.57;4.33;;;;;;;10.15;100.00;101007.28;5034674;28;20478;-80
2022/10/21 00:16:30;;;;;;;6.83;3.53;;;;;;;10.14;100.00;101011.09;5035006;28;20950;-79
2022/10/21 00:18:57;;;;;;;9.17;4.70;;;;;;;10.22;100.00;101006.94;5036818;28;20439;-78
2022/10/21 00:21:23;;;;;;;8.93;3.90;;;;;;;10.21;100.00;101003.41;5034934;28;20501;-80
2022/10/21 00:23:50;;;;;;;10.03;4.83;;;;;;;10.21;100.00;101003.41;5036101;28;20478;-79
2022/10/21 00:26:17;;;;;;;11.20;3.80;;;;;;;10.22;100.00;101020.47;5016568;28;20475;-79
2022/10/21 00:28:44;;;;;;;12.60;4.30;;;;;;;10.21;100.00;101026.97;5016435;28;20433;-79
2022/10/21 00:31:14;;;;;;;13.10;3.73;;;;;;;10.20;100.00;101030.78;5034533;28;20478;-77
2022/10/21 00:33:41;;;;;;;9.93;3.77;;;;;;;10.13;100.00;101023.00;5035799;28;20505;-79
2022/10/21 00:36:13;;;;;;;10.97;4.87;;;;;;;10.10;100.00;101024.38;5035421;28;20459;-78
2022/10/21 00:38:39;;;;;;;9.93;4.23;;;;;;;10.15;100.00;101028.94;5034655;28;20828;-79
2022/10/21 00:41:07;;;;;;;10.77;4.70;;;;;;;10.19;100.00;101019.16;5035760;28;20455;-79
2022/10/21 00:43:52;;;;;;;7.33;3.40;;;;;;;10.25;100.00;101025.34;5034303;28;20498;-78
2022/10/21 00:46:26;;;;;;;9.13;3.70;;;;;;;10.28;100.00;101016.66;5034986;28;20898;-79
2022/10/21 00:48:57;;;;;;;8.37;4.00;;;;;;;10.25;100.00;101007.19;5034165;28;20454;-78
2022/10/21 00:51:24;;;;;;;9.00;4.20;;;;;;;10.31;100.00;101006.06;5036232;28;20431;-79
2022/10/21 00:53:51;;;;;;;7.93;3.57;;;;;;;10.32;100.00;101004.97;5035875;28;20478;-79
2022/10/21 00:56:23;;;;;;;7.90;3.93;;;;;;;10.28;100.00;100990.38;5036419;28;20471;-79
2022/10/21 00:58:51;;;;;;;7.63;3.80;;;;;;;10.28;100.00;100984.16;5035206;28;20516;-79
2022/10/21 01:01:18;;;;;;;7.60;3.23;;;;;;;10.28;100.00;100979.56;5035456;28;20513;-79
2022/10/21 01:03:46;;;;;;;7.50;3.80;;;;;;;10.32;100.00;100964.34;5035949;28;20514;-79
2022/10/21 01:06:13;;;;;;;11.67;3.70;;;;;;;10.29;100.00;100964.91;5034579;28;20455;-79
2022/10/21 01:08:40;;;;;;;12.03;4.30;;;;;;;10.23;100.00;100966.06;5034583;28;20517;-78
2022/10/21 01:11:13;;;;;;;15.93;5.13;;;;;;;10.19;100.00;100958.78;5035331;28;20458;-79
2022/10/21 01:13:50;;;;;;;9.50;3.83;;;;;;;10.19;100.00;100970.44;5035068;28;20540;-79
2022/10/21 01:16:22;;;;;;;9.40;3.50;;;;;;;10.16;100.00;100957.47;5034878;28;20435;-80
2022/10/21 01:18:58;;;;;;;7.70;3.50;;;;;;;10.14;100.00;100969.66;5034878;28;20467;-79
2022/10/21 01:21:32;;;;;;;9.63;4.20;;;;;;;10.11;100.00;100969.16;5035450;28;20438;-79
2022/10/21 01:24:32;;;;;;;10.67;4.60;;;;;;;10.06;100.00;100957.59;5034247;28;20495;-81
2022/10/21 01:27:12;;;;;;;7.63;3.40;;;;;;;9.96;100.00;100963.94;5014739;28;20462;-81
2022/10/21 01:30:00;;;;;;;7.67;3.60;;;;;;;9.97;100.00;100957.41;5038538;28;20461;-79
2022/10/21 01:32:51;;;;;;;19.97;4.10;;;;;;;10.02;100.00;100951.94;5039698;28;20478;-79
2022/10/21 01:35:22;;;;;;;8.53;4.17;;;;;;;10.11;100.00;100941.28;5040334;28;20458;-79
2022/10/21 01:37:55;;;;;;;9.53;4.33;;;;;;;10.12;100.00;100942.88;5040862;28;20442;-79
2022/10/21 01:40:29;;;;;;;7.30;3.40;;;;;;;10.22;100.00;100934.63;5038328;28;20462;-79
2022/10/21 01:42:59;;;;;;;11.30;4.90;;;;;;;10.23;100.00;100938.97;5040916;28;20491;-79
2022/10/21 01:45:32;;;;;;;7.97;4.07;;;;;;;10.25;100.00;100934.09;5040948;28;20459;-80
2022/10/21 01:48:04;;;;;;;8.67;3.50;;;;;;;10.31;100.00;100929.41;5040395;28;20408;-80
2022/10/21 01:50:35;;;;;;;8.67;3.97;;;;;;;10.32;100.00;100920.22;5039357;28;20442;-79
2022/10/21 01:53:06;;;;;;;10.10;4.50;;;;;;;10.38;100.00;100908.22;5040317;28;20470;-80
2022/10/21 01:55:35;;;;;;;9.07;4.03;;;;;;;10.46;100.00;100909.47;5040021;28;20470;-80
2022/10/21 01:58:05;;;;;;;12.00;4.30;;;;;;;10.42;100.00;100898.41;5040181;28;20926;-80
2022/10/21 02:00:35;;;;;;;9.67;3.80;;;;;;;10.44;100.00;100898.91;5038906;28;20439;-85
2022/10/21 02:03:07;;;;;;;14.30;4.80;;;;;;;10.47;100.00;100886.69;5038925;28;20499;-80
2022/10/21 02:05:35;;;;;;;11.00;4.30;;;;;;;10.48;100.00;100888.31;5041283;28;20420;-79
2022/10/21 02:08:02;;;;;;;9.07;3.67;;;;;;;10.51;100.00;100885.03;5040145;28;20442;-83
2022/10/21 02:10:34;;;;;;;14.00;4.37;;;;;;;10.46;100.00;100869.66;5020157;28;20456;-80
2022/10/21 02:13:03;;;;;;;11.70;5.00;;;;;;;10.38;100.00;100877.63;5019916;28;20473;-86
2022/10/21 02:15:33;;;;;;;8.73;4.27;;;;;;;10.33;100.00;100857.66;5038783;28;20471;-79
2022/10/21 02:18:05;;;;;;;9.83;4.27;;;;;;;10.32;100.00;100856.03;5040446;28;20435;-81
2022/10/21 02:20:35;;;;;;;7.27;3.93;;;;;;;10.28;100.00;100851.50;5020748;28;20440;-79
2022/10/21 02:23:03;;;;;;;7.90;3.43;;;;;;;10.31;100.00;100856.31;5019632;28;20491;-80
2022/10/21 02:25:33;;;;;;;12.30;4.47;;;;;;;10.31;100.00;100875.25;5037336;28;20473;-79
2022/10/21 02:28:00;;;;;;;10.83;4.60;;;;;;;10.41;100.00;100879.75;5040661;28;20802;-80
2022/10/21 02:30:32;;;;;;;10.50;4.50;;;;;;;10.44;100.00;100874.53;5019237;28;20788;-79
2022/10/21 02:33:03;;;;;;;8.50;4.20;;;;;;;10.51;100.00;100868.78;5020249;28;20464;-80
2022/10/21 02:35:37;;;;;;;9.83;5.10;;;;;;;10.44;100.00;100862.91;5036448;28;20477;-79
2022/10/21 02:38:10;;;;;;;10.13;5.07;;;;;;;10.44;100.00;100863.69;5038371;28;20808;-79
2022/10/21 02:40:40;;;;;;;9.20;4.43;;;;;;;10.42;100.00;100857.00;5038515;28;20435;-80
2022/10/21 02:43:10;;;;;;;9.07;3.87;;;;;;;10.47;100.00;100851.50;5037508;28;20488;-80
2022/10/21 02:45:36;;;;;;;11.33;5.10;;;;;;;10.45;100.00;100854.50;5037097;28;20470;-79
2022/10/21 02:48:03;;;;;;;8.70;4.13;;;;;;;10.48;100.00;100834.13;5037284;28;20945;-78
2022/10/21 02:50:31;;;;;;;22.20;5.03;;;;;;;10.48;100.00;100826.81;5037877;28;20450;-79
2022/10/21 02:52:58;;;;;;;7.77;4.00;;;;;;;10.50;100.00;100832.75;5037117;28;20471;-79
2022/10/21 02:55:25;;;;;;;9.27;3.80;;;;;;;10.53;100.00;100823.22;5037073;28;20475;-79
2022/10/21 02:57:51;;;;;;;10.90;5.13;;;;;;;10.59;100.00;100827.47;5037269;28;20470;-79
2022/10/21 03:00:18;;;;;;;10.80;4.90;;;;;;;10.65;100.00;100822.78;5037607;28;20443;-79
2022/10/21 03:02:44;;;;;;;9.20;3.90;;;;;;;10.71;100.00;100816.16;5037082;28;20498;-78
2022/10/21 03:05:11;;;;;;;11.70;3.90;;;;;;;10.70;100.00;100817.28;5037679;28;20482;-78
2022/10/21 03:07:39;;;;;;;12.60;4.97;;;;;;;10.71;100.00;100813.47;5037164;28;20466;-79
2022/10/21 03:10:07;;;;;;;8.20;3.87;;;;;;;10.71;100.00;100813.47;5037480;28;20464;-78
2022/10/21 03:12:33;;;;;;;18.03;5.23;;;;;;;10.71;100.00;100819.69;5036081;28;20463;-78
2022/10/21 03:15:00;;;;;;;8.57;4.23;;;;;;;10.73;100.00;100814.78;5036375;28;20455;-79
2022/10/21 03:17:26;;;;;;;9.73;3.80;;;;;;;10.72;100.00;100815.09;5035329;28;20450;-79
2022/10/21 03:19:52;;;;;;;10.57;4.23;;;;;;;10.72;100.00;100821.31;5035855;28;20815;-78
2022/10/21 03:22:19;;;;;;;8.90;3.90;;;;;;;10.73;100.00;100831.03;5035310;28;20841;-82
2022/10/21 03:24:47;;;;;;;11.00;4.07;;;;;;;10.72;100.00;100829.44;5035490;28;20467;-78
2022/10/21 03:27:13;;;;;;;7.63;3.80;;;;;;;10.63;100.00;100827.69;5036332;28;20447;-78
2022/10/21 03:29:39;;;;;;;8.97;4.20;;;;;;;10.66;100.00;100827.88;5035142;28;20467;-78
2022/10/21 03:32:06;;;;;;;11.00;4.50;;;;;;;10.64;100.00;100827.41;5035566;28;20467;-78
2022/10/21 03:34:32;;;;;;;10.00;4.10;;;;;;;10.66;100.00;100816.25;5035332;28;20459;-79
2022/10/21 03:36:59;;;;;;;8.60;4.23;;;;;;;10.62;100.00;100805.19;5035647;28;20946;-79
2022/10/21 03:39:25;;;;;;;9.90;4.60;;;;;;;10.67;100.00;100820.56;5033502;28;20473;-78
2022/10/21 03:41:53;;;;;;;10.70;4.53;;;;;;;10.70;100.00;100818.06;5035141;28;20474;-79
2022/10/21 03:44:20;;;;;;;10.63;4.77;;;;;;;10.67;100.00;100804.31;5033999;28;20534;-79
2022/10/21 03:46:46;;;;;;;11.40;4.90;;;;;;;10.70;100.00;100812.66;5036114;28;20443;-78
2022/10/21 03:49:13;;;;;;;10.73;4.37;;;;;;;10.67;100.00;100818.69;5031946;28;20459;-79
2022/10/21 03:51:39;;;;;;;11.17;5.40;;;;;;;10.67;100.00;100813.28;5036935;28;20454;-79
2022/10/21 03:54:06;;;;;;;10.03;3.87;;;;;;;10.67;100.00;100805.13;5036508;28;21020;-80
2022/10/21 03:56:32;;;;;;;8.00;3.30;;;;;;;10.66;100.00;100789.97;5036777;28;20459;-79
2022/10/21 03:59:22;;;;;;;11.40;4.83;;;;;;;10.64;100.00;100797.59;5036385;28;21006;-82
2022/10/21 04:01:49;;;;;;;9.10;4.43;;;;;;;10.65;100.00;100807.31;5028477;28;20455;-78
2022/10/21 04:04:15;;;;;;;10.83;5.00;;;;;;;10.62;100.00;100788.94;5036203;28;20491;-79
2022/10/21 04:06:41;;;;;;;12.07;5.80;;;;;;;10.61;100.00;100784.63;5037218;28;20455;-79
2022/10/21 04:09:08;;;;;;;8.70;4.57;;;;;;;10.61;100.00;100793.56;5036638;28;20463;-79
2022/10/21 04:11:34;;;;;;;11.03;5.47;;;;;;;10.60;100.00;100777.63;5037955;28;20443;-80
2022/10/21 04:14:01;;;;;;;9.33;4.60;;;;;;;10.63;100.00;100768.91;5036466;28;20459;-79
2022/10/21 04:16:29;;;;;;;11.20;5.17;;;;;;;10.54;100.00;100774.19;5039453;28;20467;-79
2022/10/21 04:18:55;;;;;;;8.30;4.60;;;;;;;10.55;100.00;100759.53;5037176;28;20479;-78
2022/10/21 04:21:22;;;;;;;9.37;4.80;;;;;;;10.50;100.00;100743.38;5035393;28;20490;-82
2022/10/21 04:23:48;;;;;;;9.80;4.93;;;;;;;10.54;100.00;100749.03;5016748;28;20496;-78
2022/10/21 04:26:14;;;;;;;13.93;5.10;;;;;;;10.57;100.00;100748.41;5026453;28;20459;-78
2022/10/21 04:28:41;;;;;;;14.40;6.37;;;;;;;10.57;100.00;100732.94;5036260;28;20446;-79
2022/10/21 04:31:07;;;;;;;13.77;5.67;;;;;;;10.57;100.00;100722.13;5035878;28;20467;-78
2022/10/21 04:33:35;;;;;;;9.47;4.50;;;;;;;10.59;100.00;100732.69;5035719;28;20474;-79
2022/10/21 04:36:02;;;;;;;9.97;4.90;;;;;;;10.60;100.00;100734.28;5035833;28;20471;-80
2022/10/21 04:38:29;;;;;;;20.33;6.33;;;;;;;10.65;100.00;100731.47;5035975;28;20447;-79
2022/10/21 04:40:57;;;;;;;10.47;5.10;;;;;;;10.70;100.00;100731.38;5032630;28;20525;-78
2022/10/21 04:43:23;;;;;;;9.73;5.13;;;;;;;10.77;100.00;100736.44;5036552;28;20502;-82
2022/10/21 04:45:50;;;;;;;9.93;5.53;;;;;;;10.76;100.00;100743.75;5036686;28;20606;-82
2022/10/21 04:48:16;;;;;;;11.93;5.30;;;;;;;10.73;100.00;100730.00;5037532;28;20443;-82
2022/10/21 04:50:44;;;;;;;11.87;5.17;;;;;;;10.77;100.00;100728.31;5038304;28;20534;-82
2022/10/21 04:53:11;;;;;;;11.50;5.37;;;;;;;10.76;100.00;100732.91;5039076;28;20974;-82
2022/10/21 04:55:38;;;;;;;10.23;5.63;;;;;;;10.80;100.00;100722.25;5038055;28;20459;-82
2022/10/21 04:58:05;;;;;;;10.07;4.70;;;;;;;10.84;100.00;100721.38;5037549;28;20455;-82
2022/10/21 05:00:31;;;;;;;11.43;5.83;;;;;;;10.84;100.00;100721.38;5037010;28;20459;-82
2022/10/21 05:02:58;;;;;;;20.77;5.73;;;;;;;10.90;100.00;100707.75;5042324;28;20474;-82
2022/10/21 05:05:24;;;;;;;10.97;6.40;;;;;;;10.84;100.00;100710.53;5036828;28;20459;-82
2022/10/21 05:07:52;;;;;;;11.50;5.20;;;;;;;10.85;100.00;100708.66;5037468;28;20435;-81
2022/10/21 05:10:19;;;;;;;8.80;4.27;;;;;;;10.79;100.00;100704.41;5036838;28;20962;-82
2022/10/21 05:12:46;;;;;;;10.43;5.30;;;;;;;10.74;100.00;100691.75;5037323;28;20477;-82
2022/10/21 05:15:13;;;;;;;9.10;4.30;;;;;;;10.70;100.00;100700.78;5035178;28;20449;-82
2022/10/21 05:17:39;;;;;;;12.97;5.20;;;;;;;10.66;100.00;100702.47;5035728;28;20450;-83
2022/10/21 05:20:07;;;;;;;9.20;5.07;;;;;;;10.65;100.00;100701.69;5034553;28;20460;-82
2022/10/21 05:22:34;;;;;;;12.67;5.70;;;;;;;10.67;100.00;100702.19;5035564;28;20869;-83
2022/10/21 05:25:01;;;;;;;20.93;6.07;;;;;;;10.64;100.00;100691.16;5036861;28;20494;-82
2022/10/21 05:27:28;;;;;;;12.60;5.37;;;;;;;10.68;100.00;100681.34;5037079;28;20428;-81
2022/10/21 05:29:55;;;;;;;10.00;4.63;;;;;;;10.70;100.00;100682.63;5035880;28;20463;-82
2022/10/21 05:32:21;;;;;;;17.93;5.53;;;;;;;10.73;100.00;100675.81;5033256;28;20907;-82
2022/10/21 05:34:48;;;;;;;10.23;5.23;;;;;;;10.76;100.00;100670.59;5036438;28;20888;-82
2022/10/21 05:37:14;;;;;;;12.77;6.20;;;;;;;10.77;100.00;100672.19;5036509;28;20814;-83
2022/10/21 05:39:41;;;;;;;9.40;5.00;;;;;;;10.79;100.00;100667.28;5034120;28;20467;-82
2022/10/21 05:42:09;;;;;;;11.37;5.27;;;;;;;10.80;100.00;100668.91;5038292;28;20495;-82
2022/10/21 05:44:35;;;;;;;12.43;5.30;;;;;;;10.76;100.00;100669.81;5037244;28;20486;-82
2022/10/21 05:47:02;;;;;;;8.50;4.50;;;;;;;10.79;100.00;100667.28;5035206;28;20852;-82
2022/10/21 05:49:28;;;;;;;14.53;5.90;;;;;;;10.88;100.00;100672.81;5035940;28;20445;-82
2022/10/21 05:51:55;;;;;;;18.20;6.10;;;;;;;10.82;100.00;100657.75;5034144;28;20823;-82
2022/10/21 05:54:21;;;;;;;10.03;5.63;;;;;;;10.80;100.00;100665.34;5036814;28;20448;-82
2022/10/21 05:56:48;;;;;;;11.87;6.53;;;;;;;10.70;100.00;100658.25;5037516;28;20950;-82
2022/10/21 05:59:16;;;;;;;11.90;5.30;;;;;;;10.72;100.00;100656.03;5036390;28;20848;-83
2022/10/21 06:01:42;;;;;;;12.17;5.47;;;;;;;10.64;100.00;100650.53;5034494;28;20483;-83
2022/10/21 06:04:09;;;;;;;15.33;5.63;;;;;;;10.61;100.00;100657.31;5036698;28;21000;-82
2022/10/21 06:06:35;;;;;;;12.20;5.73;;;;;;;10.64;100.00;100655.94;5035983;28;20451;-82
2022/10/21 06:09:02;;;;;;;9.13;5.13;;;;;;;10.67;100.00;100660.75;5034971;28;20467;-82
2022/10/21 06:11:28;;;;;;;15.07;5.90;;;;;;;10.67;100.00;100663.44;5037952;28;20960;-82
2022/10/21 06:13:55;;;;;;;10.17;5.33;;;;;;;10.75;100.00;100654.63;5038411;28;20463;-81
2022/10/21 06:16:23;;;;;;;16.70;6.00;;;;;;;10.79;100.00;100661.84;5037276;28;20458;-82
2022/10/21 06:18:49;;;;;;;10.60;5.40;;;;;;;10.83;100.00;100664.78;5037496;28;20465;-84
2022/10/21 06:21:16;;;;;;;11.73;6.37;;;;;;;10.92;100.00;100664.88;5038885;28;20463;-83
2022/10/21 06:23:42;;;;;;;11.70;5.50;;;;;;;10.90;100.00;100662.47;5038630;28;20497;-82
2022/10/21 06:26:12;;;;;;;9.43;5.30;;;;;;;10.92;100.00;100662.16;5039606;28;20452;-82
2022/10/21 06:28:40;;;;;;;12.07;5.10;;;;;;;10.98;100.00;100664.50;5037939;28;20969;-81
2022/10/21 06:31:07;;;;;;;9.40;5.27;;;;;;;10.97;100.00;100670.19;5037923;28;20872;-81
2022/10/21 06:33:35;;;;;;;19.67;5.83;;;;;;;10.98;100.00;100669.06;5039164;28;20888;-80
2022/10/21 06:36:02;;;;;;;10.60;5.80;;;;;;;10.98;100.00;100679.91;5036578;28;20465;-80
2022/10/21 06:38:28;;;;;;;10.70;5.30;;;;;;;10.93;100.00;100680.03;5037609;28;20439;-81
2022/10/21 06:41:01;;;;;;;11.77;5.10;;;;;;;10.90;100.00;100684.16;5036867;28;20459;-82
2022/10/21 06:43:28;;;;;;;11.10;5.17;;;;;;;10.85;100.00;100674.22;5036982;28;20869;-80
2022/10/21 06:45:59;;;;;;;12.47;5.87;;;;;;;10.86;100.00;100675.81;5039040;28;20447;-81
2022/10/21 06:48:25;;;;;;;21.77;5.77;;;;;;;10.91;100.00;100677.63;5020512;28;20794;-81
2022/10/21 06:50:58;;;;;;;8.57;4.70;;;;;;;10.96;100.00;100679.44;5023277;28;20467;-81
2022/10/21 06:53:24;;;;;;;8.83;4.77;;;;;;;11.03;100.00;100671.72;5037123;28;20459;-81
2022/10/21 06:55:51;;;;;;;13.47;6.47;;;;;;;11.09;100.00;100675.91;5036800;28;20463;-81
2022/10/21 06:58:17;;;;;;;11.70;5.10;;;;;;;11.18;100.00;100668.69;5037058;28;20601;-80
2022/10/21 07:00:43;;;;;;;12.13;6.10;;;;;;;11.27;100.00;100666.84;5037200;28;20470;-81
2022/10/21 07:03:10;;;;;;;12.73;5.83;;;;;;;11.35;100.00;100666.16;5036939;28;20554;-81
2022/10/21 07:05:36;;;;;;;12.43;6.23;;;;;;;11.41;100.00;100685.03;5037713;28;20483;-81
2022/10/21 07:08:04;;;;;;;9.80;5.40;;;;;;;11.46;100.00;100682.19;5043086;28;20463;-79
2022/10/21 07:10:31;;;;;;;10.97;5.60;;;;;;;11.51;100.00;100695.63;5045764;28;20439;-81
2022/10/21 07:12:57;;;;;;;12.90;5.50;;;;;;;11.57;100.00;100700.66;5034609;28;20490;-80
2022/10/21 07:15:24;;;;;;;10.57;6.00;;;;;;;11.61;100.00;100693.53;5035855;28;20780;-79
2022/10/21 07:17:50;;;;;;;11.60;5.83;;;;;;;11.62;100.00;100688.91;5034432;28;20459;-80
2022/10/21 07:20:16;;;;;;;11.37;5.93;;;;;;;11.66;100.00;100695.31;5035921;28;20443;-80
2022/10/21 07:22:43;;;;;;;12.00;4.87;;;;;;;11.73;100.00;100709.28;5034100;28;20490;-80
2022/10/21 07:25:12;;;;;;;10.63;5.70;;;;;;;11.66;100.00;100700.75;5031416;28;20483;-79
2022/10/21 07:27:38;;;;;;;12.27;6.00;;;;;;;11.74;100.00;100707.38;5035955;28;20459;-80
2022/10/21 07:30:06;;;;;;;9.60;4.97;;;;;;;11.75;100.00;100711.69;5035588;28;20442;-80
2022/10/21 07:32:32;;;;;;;10.77;5.60;;;;;;;11.68;99.58;100706.66;5036979;28;20467;-81
2022/10/21 07:35:00;;;;;;;9.90;5.20;;;;;;;11.61;99.59;100709.81;5037760;28;20450;-81
2022/10/21 07:37:26;;;;;;;10.00;5.40;;;;;;;11.68;100.00;100706.66;5035314;28;20467;-81
2022/10/21 07:39:53;;;;;;;9.27;4.83;;;;;;;11.71;100.00;100710.69;5036039;28;20463;-81
2022/10/21 07:42:23;;;;;;;12.17;4.67;;;;;;;11.75;100.00;100707.06;5036538;28;20581;-80
2022/10/21 07:44:51;;;;;;;9.60;5.00;;;;;;;11.74;100.00;100699.22;5026142;28;20574;-80
2022/10/21 07:47:18;;;;;;;12.03;5.00;;;;;;;11.82;100.00;100702.06;5036500;28;20546;-80
2022/10/21 07:49:44;;;;;;;13.47;6.70;;;;;;;11.84;100.00;100699.81;5036520;28;20467;-81
2022/10/21 07:52:11;;;;;;;10.97;4.67;;;;;;;11.89;100.00;100687.25;5036496;28;20467;-81
2022/10/21 07:54:37;;;;;;;11.90;5.97;;;;;;;11.91;100.00;100701.28;5036733;28;20509;-81
2022/10/21 07:57:04;;;;;;;22.93;6.90;;;;;;;11.97;100.00;100692.75;5036660;28;20961;-80
2022/10/21 07:59:32;;;;;;;9.97;4.97;;;;;;;12.02;100.00;100683.69;5033846;28;20470;-80
2022/10/21 08:01:58;;;;;;;11.77;5.83;;;;;;;12.07;99.59;100691.69;5037411;28;20529;-80
2022/10/21 08:04:28;;;;;;;12.33;5.57;;;;;;;12.15;99.10;100703.75;5035937;28;20487;-81
2022/10/21 08:06:55;;;;;;;12.47;5.17;;;;;;;12.15;99.93;100696.38;5037199;28;20447;-80
2022/10/21 08:09:22;;;;;;;12.00;5.00;;;;;;;12.20;99.58;100707.13;5036001;28;20864;-80
2022/10/21 08:11:48;;;;;;;14.90;5.90;;;;;;;12.30;99.57;100693.28;5036610;28;20454;-81
2022/10/21 08:14:15;;;;;;;11.13;5.13;;;;;;;12.29;98.96;100697.13;5035464;28;20455;-81
2022/10/21 08:16:43;;;;;;;13.57;5.30;;;;;;;12.36;99.31;100685.84;5036012;28;20463;-81
2022/10/21 08:19:17;;;;;;;12.23;4.97;;;;;;;12.53;98.91;100687.84;5036432;28;20471;-80
2022/10/21 08:21:44;;;;;;;11.27;5.57;;;;;;;12.58;98.44;100679.56;5036766;28;20918;-80
2022/10/21 08:24:10;;;;;;;13.03;5.27;;;;;;;12.60;97.72;100682.75;5035034;28;20467;-81
2022/10/21 08:26:38;;;;;;;16.40;5.33;;;;;;;12.60;98.00;100677.31;5036399;28;20447;-81
2022/10/21 08:29:04;;;;;;;13.60;6.03;;;;;;;12.66;98.14;100681.53;5035785;28;20459;-82
2022/10/21 08:31:31;;;;;;;11.67;6.03;;;;;;;12.70;96.91;100682.47;5036701;28;20466;-82
2022/10/21 08:33:59;;;;;;;10.90;5.33;;;;;;;12.71;96.92;100678.66;5039850;28;20838;-81
2022/10/21 08:36:26;;;;;;;9.77;4.70;;;;;;;12.77;96.59;100677.41;5037092;28;20475;-81
2022/10/21 08:38:54;;;;;;;9.50;4.13;;;;;;;12.80;96.75;100665.91;5039846;28;20439;-80
2022/10/21 08:41:46;;;;;;;12.00;5.07;;;;;;;12.90;96.89;100675.69;5036086;28;20462;-80
2022/10/21 08:44:23;;;;;;;10.87;5.27;;;;;;;12.96;96.82;100663.56;5035518;28;20464;-81
2022/10/21 08:46:55;;;;;;;11.73;5.80;;;;;;;12.99;96.98;100657.50;5034663;28;20463;-82
2022/10/21 08:49:29;;;;;;;26.00;6.80;;;;;;;13.01;97.22;100649.81;5035580;28;20438;-79
2022/10/21 08:52:02;;;;;;;11.33;5.87;;;;;;;13.09;96.49;100648.25;5035982;28;20978;-80
2022/10/21 08:54:38;;;;;;;10.63;5.63;;;;;;;13.24;96.29;100645.13;5035277;28;20463;-81
2022/10/21 08:57:05;;;;;;;15.00;7.00;;;;;;;13.35;96.31;100654.56;5034658;28;20819;-82
2022/10/21 08:59:33;;;;;;;12.17;5.97;;;;;;;13.47;94.91;100653.16;5036232;28;20447;-80
2022/10/21 09:02:15;;;;;;;15.53;5.57;;;;;;;13.55;93.96;100652.38;5034173;28;20483;-80
2022/10/21 09:04:52;;;;;;;11.13;5.40;;;;;;;13.63;92.95;100648.81;5035593;28;20463;-82
2022/10/21 09:07:27;;;;;;;12.73;6.03;;;;;;;13.63;92.88;100651.56;5034784;28;20992;-81
2022/10/21 09:09:58;;;;;;;9.17;4.63;;;;;;;13.72;93.27;100641.47;5037756;28;20427;-82
2022/10/21 09:12:30;;;;;;;12.47;5.60;;;;;;;13.86;93.59;100636.66;5036654;28;20482;-82
2022/10/21 09:15:08;;;;;;;11.67;5.57;;;;;;;14.00;93.32;100632.97;5036893;28;20435;-82
2022/10/21 09:17:48;;;;;;;11.00;5.83;;;;;;;14.07;93.18;100620.44;5035452;28;20457;-82
2022/10/21 09:20:28;;;;;;;9.37;5.03;;;;;;;14.17;93.33;100619.31;5037478;28;20423;-82
2022/10/21 09:23:06;;;;;;;9.10;5.00;;;;;;;14.07;91.73;100628.63;5034730;28;20475;-81
2022/10/21 09:25:34;;;;;;;11.10;5.33;;;;;;;14.05;91.42;100635.53;5035454;28;20474;-82
2022/10/21 09:28:08;;;;;;;10.03;4.50;;;;;;;14.16;91.59;100623.16;5037664;28;20451;-82
2022/10/21 09:30:35;;;;;;;13.40;4.87;;;;;;;14.22;91.96;100621.88;5017797;28;20436;-82
2022/10/21 09:33:02;;;;;;;10.43;5.47;;;;;;;14.31;91.90;100633.53;5020173;28;20468;-79
2022/10/21 09:35:36;;;;;;;10.83;5.17;;;;;;;14.34;90.95;100634.81;5020220;28;20447;-80
2022/10/21 09:38:13;;;;;;;12.53;5.73;;;;;;;14.35;90.60;100637.22;5016481;28;20428;-82
2022/10/21 09:40:39;;;;;;;11.07;5.07;;;;;;;14.38;90.01;100617.47;5017591;28;20425;-82
2022/10/21 09:43:29;;;;;;;15.47;5.13;;;;;;;14.39;90.07;100618.31;5016384;28;20503;-81
2022/10/21 09:46:05;;;;;;;10.90;5.50;;;;;;;14.41;89.99;100616.03;5000642;28;20473;-81
2022/10/21 09:48:41;;;;;;;14.63;5.20;;;;;;;14.52;90.31;100621.94;5006158;28;20546;-81
2022/10/21 09:51:47;;;;;;;11.67;4.70;;;;;;;14.63;90.58;100620.47;5020454;28;20412;-81
2022/10/21 09:54:25;;;;;;;11.77;4.60;;;;;;;14.85;90.45;100613.97;5018033;28;20447;-82
2022/10/21 09:57:15;;;;;;;12.10;4.80;;;;;;;14.96;90.77;100611.63;5019694;28;20490;-81
2022/10/21 10:00:01;;;;;;;7.73;4.60;;;;;;;15.00;90.56;100621.56;5022090;28;20417;-81
2022/10/21 10:02:33;;;;;;;10.87;4.90;;;;;;;15.17;90.73;100622.59;5022650;28;20476;-81
2022/10/21 10:05:47;;;;;;;;;;;;;;;;;;;;;
2022/10/21 10:08:49;;;;;;;10.20;5.27;;;;;;;15.06;89.33;100622.19;5019175;28;20478;-81
2022/10/21 10:11:42;;;;;;;12.17;5.07;;;;;;;15.03;89.22;100618.19;5015326;28;20486;-81
2022/10/21 10:14:37;;;;;;;11.90;4.57;;;;;;;15.02;88.45;100610.34;5019901;28;20459;-81
2022/10/21 10:17:34;;;;;;;13.50;5.23;;;;;;;15.13;89.36;100606.09;5019562;28;20459;-80
2022/10/21 10:20:19;;;;;;;9.83;5.00;;;;;;;15.20;89.58;100597.38;5021228;28;20416;-80
2022/10/21 10:23:14;;;;;;;10.60;4.43;;;;;;;15.37;89.18;100605.44;5037958;28;20522;-82
2022/10/21 10:26:41;;;;;;;;;;;;;;;;;;;;;
2022/10/21 10:29:54;;;;;;;8.73;4.17;;;;;;;15.88;84.96;100581.56;4964966;28;20469;-80
2022/10/21 10:32:30;;;;;;;6.07;3.50;;;;;;;16.21;84.35;100580.75;4902141;29;20501;-81
2022/10/21 10:35:04;;;;;;;9.80;4.60;;;;;;;16.52;83.61;100572.81;4920491;29;20563;-81
2022/10/21 10:37:38;;;;;;;9.00;3.67;;;;;;;16.78;83.24;100590.88;4920479;29;20928;-80
2022/10/21 10:40:37;;;;;;;9.57;4.27;;;;;;;16.80;81.97;100583.88;4920149;29;20555;-80
2022/10/21 10:43:09;;;;;;;9.77;4.47;;;;;;;16.74;80.70;100582.53;4982665;23;20492;-69
2022/10/21 10:45:37;;;;;;;8.00;3.53;;;;;;;16.74;82.18;100588.00;5014101;28;20843;-69
2022/10/21 10:48:06;;;;;;;7.97;4.03;;;;;;;16.78;81.89;100583.44;5015861;28;20467;-69
2022/10/21 10:50:41;;;;;;;21.23;4.40;;;;;;;16.90;79.58;100577.94;5013950;28;20464;-69
2022/10/21 10:53:23;;;;;;;8.90;4.10;;;;;;;17.02;77.71;100568.13;5016069;28;20428;-70
2022/10/21 10:55:59;;;;;;;7.03;3.33;;;;;;;17.01;78.31;100561.06;5015282;28;20514;-69
2022/10/21 10:58:31;;;;;;;8.30;3.80;;;;;;;16.99;77.82;100568.81;5014183;28;20958;-70
2022/10/21 11:01:02;;;;;;;7.70;3.20;;;;;;;17.03;78.29;100561.50;5015608;28;20448;-69
2022/10/21 11:03:35;;;;;;;10.07;4.60;;;;;;;17.22;77.54;100547.22;5014919;28;20428;-69
2022/10/21 11:06:13;;;;;;;8.97;3.83;;;;;;;17.45;77.56;100552.97;5015286;28;20472;-69
2022/10/21 11:08:44;;;;;;;7.20;4.03;;;;;;;17.75;76.29;100553.44;5013699;28;20456;-70
2022/10/21 11:11:17;;;;;;;7.97;4.20;;;;;;;17.88;73.64;100555.78;5000300;28;20857;-69
2022/10/21 11:13:44;;;;;;;8.30;3.90;;;;;;;17.95;73.28;100555.16;5014716;28;20456;-69
2022/10/21 11:16:27;;;;;;;7.63;3.63;;;;;;;18.08;74.27;100556.66;5015431;28;20448;-69
2022/10/21 11:19:04;;;;;;;7.77;3.80;;;;;;;17.98;74.47;100545.44;5014452;28;20456;-69
2022/10/21 11:21:44;;;;;;;9.37;4.53;;;;;;;18.02;72.73;100560.03;5015485;28;20428;-69
2022/10/21 11:24:28;;;;;;;9.73;3.77;;;;;;;17.83;72.30;100555.22;5014124;28;20483;-69
2022/10/21 11:27:00;;;;;;;8.17;4.03;;;;;;;17.69;73.33;100549.31;5015386;28;20472;-69
2022/10/21 11:29:36;;;;;;;7.17;3.43;;;;;;;17.58;74.43;100552.56;5013725;28;20860;-69
2022/10/21 11:32:15;;;;;;;8.20;3.57;;;;;;;17.47;76.44;100554.19;5013117;28;20539;-69
2022/10/21 11:34:53;;;;;;;7.23;3.20;;;;;;;17.54;76.48;100548.16;5014894;28;20471;-68